createdAt,value
2023-05-14T00:01:12.123Z,14.62
2023-05-14T00:03:41.231Z,14.27
2023-05-14T00:06:09.082Z,14.24
2023-05-14T00:08:36.117Z,14.50
2023-05-14T00:11:03.103Z,14.34
2023-05-14T00:13:30.111Z,14.18
2023-05-14T00:15:57.128Z,14.15
2023-05-14T00:18:24.178Z,14.11
2023-05-14T00:20:54.813Z,14.08
2023-05-14T00:23:22.740Z,14.21
2023-05-14T00:25:49.952Z,14.52
2023-05-14T00:28:16.954Z,14.53
2023-05-14T00:30:44.521Z,14.55
2023-05-14T00:33:11.765Z,14.58
2023-05-14T00:35:38.855Z,14.89
2023-05-14T00:38:06.233Z,14.48
2023-05-14T00:40:33.244Z,14.63
2023-05-14T00:43:00.484Z,14.67
2023-05-14T00:45:27.665Z,14.95
2023-05-14T00:47:54.732Z,14.98
2023-05-14T00:50:22.450Z,15.17
2023-05-14T00:52:49.681Z,15.16
2023-05-14T00:55:16.796Z,14.54
2023-05-14T00:57:44.184Z,14.44
2023-05-14T01:00:11.780Z,14.85
2023-05-14T01:02:38.879Z,15.02
2023-05-14T01:05:06.244Z,14.93
2023-05-14T01:07:42.230Z,14.19
2023-05-14T01:10:14.181Z,14.22
2023-05-14T01:12:59.309Z,14.50
2023-05-14T01:15:28.887Z,14.64
2023-05-14T01:18:07.832Z,14.58
2023-05-14T01:20:34.886Z,14.83
2023-05-14T01:23:01.991Z,14.97
2023-05-14T01:25:30.543Z,15.09
2023-05-14T01:28:19.557Z,14.82
2023-05-14T01:30:52.794Z,14.57
2023-05-14T01:33:20.197Z,14.39
2023-05-14T01:35:47.645Z,14.07
2023-05-14T01:38:16.136Z,14.33
2023-05-14T01:40:43.185Z,14.57
2023-05-14T01:43:10.251Z,14.74
2023-05-14T01:45:37.355Z,13.99
2023-05-14T01:48:05.417Z,13.66
2023-05-14T01:50:32.456Z,14.23
2023-05-14T01:52:59.489Z,14.15
2023-05-14T01:55:27.807Z,13.63
2023-05-14T01:57:54.802Z,12.82
2023-05-14T02:00:23.806Z,13.41
2023-05-14T02:02:51.078Z,13.66
2023-05-14T02:05:18.226Z,13.43
2023-05-14T02:07:45.264Z,13.80
2023-05-14T02:10:12.265Z,12.85
2023-05-14T02:12:39.254Z,13.44
2023-05-14T02:15:06.754Z,13.82
2023-05-14T02:17:33.857Z,14.48
2023-05-14T02:20:00.898Z,14.42
2023-05-14T02:22:45.656Z,14.67
2023-05-14T02:25:12.756Z,14.97
2023-05-14T02:27:39.740Z,14.42
2023-05-14T02:30:07.319Z,14.43
2023-05-14T02:32:34.415Z,14.86
2023-05-14T02:35:01.976Z,15.00
2023-05-14T02:37:29.022Z,15.08
2023-05-14T02:39:55.969Z,15.31
2023-05-14T02:42:23.023Z,15.38
2023-05-14T02:44:50.108Z,15.49
2023-05-14T02:47:17.124Z,15.34
2023-05-14T02:49:44.193Z,15.25
2023-05-14T02:52:11.175Z,14.94
2023-05-14T02:54:38.160Z,15.09
2023-05-14T02:57:05.396Z,15.37
2023-05-14T02:59:32.503Z,15.39
2023-05-14T03:02:00.340Z,15.21
2023-05-14T03:04:27.870Z,14.90
2023-05-14T03:06:54.874Z,14.86
2023-05-14T03:09:21.808Z,14.33
2023-05-14T03:11:49.498Z,14.35
2023-05-14T03:14:16.545Z,14.52
2023-05-14T03:16:43.583Z,14.70
2023-05-14T03:19:10.940Z,14.63
2023-05-14T03:21:37.991Z,15.02
2023-05-14T03:24:05.272Z,15.30
2023-05-14T03:26:32.263Z,14.89
2023-05-14T03:28:59.248Z,15.07
2023-05-14T03:31:26.690Z,14.95
2023-05-14T03:33:56.641Z,13.73
2023-05-14T03:36:23.746Z,13.07
2023-05-14T03:38:50.753Z,13.49
2023-05-14T03:41:19.235Z,13.39
2023-05-14T03:43:46.216Z,13.44
2023-05-14T03:46:13.367Z,13.96
2023-05-14T03:48:41.156Z,12.76
2023-05-14T03:51:08.164Z,13.58
2023-05-14T03:53:36.532Z,13.68
2023-05-14T03:56:03.646Z,14.45
2023-05-14T03:58:31.094Z,14.83
2023-05-14T04:01:00.538Z,14.71
2023-05-14T04:03:27.757Z,14.58
2023-05-14T04:05:54.949Z,14.57
2023-05-14T04:08:22.041Z,14.43
2023-05-14T04:10:50.581Z,13.61
2023-05-14T04:13:17.820Z,13.13
2023-05-14T04:15:44.966Z,12.88
2023-05-14T04:18:11.990Z,13.87
2023-05-14T04:20:39.127Z,13.78
2023-05-14T04:23:06.471Z,13.50
2023-05-14T04:25:33.491Z,13.81
2023-05-14T04:28:00.585Z,13.77
2023-05-14T04:30:27.581Z,13.07
2023-05-14T04:32:54.631Z,13.39
2023-05-14T04:35:24.648Z,12.66
2023-05-14T04:37:52.400Z,13.21
2023-05-14T04:40:19.420Z,13.27
2023-05-14T04:42:46.441Z,13.97
2023-05-14T04:45:13.686Z,13.42
2023-05-14T04:47:41.744Z,13.38
2023-05-14T04:50:09.840Z,13.65
2023-05-14T04:52:38.427Z,14.11
2023-05-14T04:55:05.968Z,14.47
2023-05-14T04:57:32.945Z,14.42
2023-05-14T04:59:59.890Z,14.14
2023-05-14T05:02:27.482Z,14.16
2023-05-14T05:04:54.501Z,13.65
2023-05-14T05:07:21.587Z,13.14
2023-05-14T05:09:48.535Z,13.48
2023-05-14T05:12:15.546Z,13.31
2023-05-14T05:14:42.523Z,13.35
2023-05-14T05:17:09.504Z,13.29
2023-05-14T05:19:43.780Z,13.67
2023-05-14T05:22:11.809Z,12.61
2023-05-14T05:24:38.849Z,12.55
2023-05-14T05:27:06.197Z,13.43
2023-05-14T05:29:33.144Z,13.65
2023-05-14T05:32:00.157Z,13.07
2023-05-14T05:34:27.567Z,12.77
2023-05-14T05:36:54.576Z,12.48
2023-05-14T05:39:21.576Z,12.39
2023-05-14T05:41:48.584Z,12.59
2023-05-14T05:44:15.677Z,13.21
2023-05-14T05:46:42.688Z,13.55
2023-05-14T05:49:09.681Z,13.62
2023-05-14T05:51:36.652Z,14.11
2023-05-14T05:54:03.783Z,14.39
2023-05-14T05:56:30.889Z,14.09
2023-05-14T05:58:57.866Z,13.89
2023-05-14T06:01:24.889Z,14.49
2023-05-14T06:03:51.863Z,14.52
2023-05-14T06:06:18.833Z,13.44
2023-05-14T06:08:45.815Z,13.71
2023-05-14T06:11:12.948Z,13.06
2023-05-14T06:13:39.931Z,13.13
2023-05-14T06:16:07.086Z,12.72
2023-05-14T06:18:34.198Z,12.79
2023-05-14T06:21:01.203Z,13.56
2023-05-14T06:23:28.210Z,13.93
2023-05-14T06:25:55.150Z,12.26
2023-05-14T06:28:22.209Z,12.35
2023-05-14T06:30:54.045Z,12.78
2023-05-14T06:33:23.527Z,11.86
2023-05-14T06:35:51.242Z,11.55
2023-05-14T06:38:18.176Z,12.54
2023-05-14T06:40:45.623Z,12.64
2023-05-14T06:43:12.563Z,12.31
2023-05-14T06:45:39.538Z,12.92
2023-05-14T06:48:06.817Z,13.55
2023-05-14T06:50:33.894Z,13.86
2023-05-14T06:53:00.880Z,13.47
2023-05-14T06:55:28.077Z,12.42
2023-05-14T06:57:55.764Z,12.93
2023-05-14T07:00:23.355Z,12.78
2023-05-14T07:02:52.164Z,13.47
2023-05-14T07:05:19.368Z,12.66
2023-05-14T07:07:46.327Z,12.42
2023-05-14T07:10:13.606Z,13.17
2023-05-14T07:12:40.618Z,13.27
2023-05-14T07:15:08.314Z,13.21
2023-05-14T07:17:35.559Z,12.45
2023-05-14T07:20:02.934Z,12.13
2023-05-14T07:22:31.121Z,11.83
2023-05-14T07:24:58.105Z,11.83
2023-05-14T07:27:25.084Z,11.07
2023-05-14T07:29:52.119Z,11.63
2023-05-14T07:32:19.203Z,11.63
2023-05-14T07:34:46.450Z,12.02
2023-05-14T07:37:13.441Z,12.01
2023-05-14T07:39:41.773Z,11.85
2023-05-14T07:42:09.174Z,12.47
2023-05-14T07:44:36.157Z,12.40
2023-05-14T07:47:04.330Z,11.69
2023-05-14T07:49:31.416Z,12.50
2023-05-14T07:51:58.727Z,13.18
2023-05-14T07:54:25.730Z,13.97
2023-05-14T07:56:52.812Z,13.56
2023-05-14T07:59:19.786Z,13.50
2023-05-14T08:01:47.050Z,12.28
2023-05-14T08:04:16.416Z,11.81
2023-05-14T08:06:43.684Z,12.01
2023-05-14T08:09:10.606Z,11.73
2023-05-14T08:11:37.741Z,12.28
2023-05-14T08:14:04.751Z,13.16
2023-05-14T08:16:31.742Z,14.14
2023-05-14T08:18:58.876Z,13.96
2023-05-14T08:21:26.017Z,14.57
2023-05-14T08:23:52.965Z,13.68
2023-05-14T08:26:19.996Z,13.22
2023-05-14T08:28:47.061Z,13.51
2023-05-14T08:31:14.870Z,13.57
2023-05-14T08:33:42.101Z,13.23
2023-05-14T08:36:09.698Z,13.02
2023-05-14T08:38:36.846Z,13.86
2023-05-14T08:41:04.634Z,13.18
2023-05-14T08:43:43.733Z,13.18
2023-05-14T08:46:11.039Z,13.42
2023-05-14T08:48:38.846Z,13.53
2023-05-14T08:51:06.378Z,13.43
2023-05-14T08:53:33.506Z,13.16
2023-05-14T08:56:01.456Z,13.62
2023-05-14T08:58:28.898Z,14.55
2023-05-14T09:00:56.263Z,15.54
2023-05-14T09:03:23.346Z,14.93
2023-05-14T09:05:51.612Z,15.04
2023-05-14T09:08:18.938Z,14.45
2023-05-14T09:10:46.209Z,13.82
2023-05-14T09:13:13.261Z,13.18
2023-05-14T09:15:41.460Z,13.65
2023-05-14T09:18:08.510Z,13.68
2023-05-14T09:20:35.564Z,13.03
2023-05-14T09:23:02.749Z,13.19
2023-05-14T09:25:32.904Z,13.38
2023-05-14T09:28:00.007Z,13.93
2023-05-14T09:30:30.159Z,14.79
2023-05-14T09:32:57.188Z,14.72
2023-05-14T09:35:24.604Z,14.11
2023-05-14T09:37:52.884Z,14.78
2023-05-14T09:40:21.119Z,15.50
2023-05-14T09:42:49.185Z,14.91
2023-05-14T09:45:16.634Z,14.22
2023-05-14T09:47:45.005Z,14.60
2023-05-14T09:50:12.645Z,14.37
2023-05-14T09:52:39.819Z,14.98
2023-05-14T09:55:07.303Z,15.44
2023-05-14T09:57:34.675Z,14.39
2023-05-14T10:00:01.936Z,14.93
2023-05-14T10:02:40.551Z,15.73
2023-05-14T10:05:08.038Z,15.59
2023-05-14T10:07:44.457Z,15.37
2023-05-14T10:10:17.137Z,15.46
2023-05-14T10:12:46.485Z,15.75
2023-05-14T10:15:17.838Z,15.78
2023-05-14T10:17:46.943Z,16.51
2023-05-14T10:20:16.211Z,16.29
2023-05-14T10:22:43.154Z,16.17
2023-05-14T10:25:10.156Z,16.72
2023-05-14T10:27:37.301Z,16.07
2023-05-14T10:30:06.884Z,16.39
2023-05-14T10:32:33.923Z,16.99
2023-05-14T10:35:01.635Z,17.21
2023-05-14T10:37:28.912Z,16.43
2023-05-14T10:40:00.321Z,16.50
2023-05-14T10:42:29.448Z,17.16
2023-05-14T10:44:58.881Z,17.19
2023-05-14T10:47:26.511Z,17.33
2023-05-14T10:49:55.050Z,15.84
2023-05-14T10:52:22.454Z,17.19
2023-05-14T10:54:53.461Z,16.70
2023-05-14T10:57:21.385Z,16.10
2023-05-14T10:59:55.728Z,15.73
2023-05-14T11:02:33.949Z,14.94
2023-05-14T11:05:05.868Z,15.80
2023-05-14T11:07:34.395Z,15.41
2023-05-14T11:10:08.721Z,15.78
2023-05-14T11:12:37.084Z,17.25
2023-05-14T11:15:06.180Z,18.00
2023-05-14T11:17:33.270Z,17.46
2023-05-14T11:20:00.370Z,17.29
2023-05-14T11:22:27.414Z,17.26
2023-05-14T11:24:54.773Z,17.68
2023-05-14T11:27:21.901Z,18.65
2023-05-14T11:29:49.073Z,17.71
2023-05-14T11:32:16.720Z,17.04
2023-05-14T11:34:47.287Z,17.30
2023-05-14T11:37:15.739Z,17.26
2023-05-14T11:39:53.608Z,17.81
2023-05-14T11:42:21.040Z,18.02
2023-05-14T11:44:49.147Z,17.90
2023-05-14T11:47:17.189Z,16.96
2023-05-14T11:49:44.222Z,16.61
2023-05-14T11:52:13.069Z,17.87
2023-05-14T11:54:40.550Z,18.45
2023-05-14T11:57:09.695Z,19.11
2023-05-14T11:59:36.749Z,18.36
2023-05-14T12:02:05.178Z,19.02
2023-05-14T12:04:32.492Z,19.58
2023-05-14T12:07:00.370Z,19.62
2023-05-14T12:09:27.331Z,18.93
2023-05-14T12:11:54.280Z,17.98
2023-05-14T12:14:22.767Z,17.21
2023-05-14T12:16:50.542Z,17.75
2023-05-14T12:19:19.377Z,17.39
2023-05-14T12:21:48.350Z,18.31
2023-05-14T12:24:17.069Z,18.49
2023-05-14T12:26:47.721Z,18.65
2023-05-14T12:29:15.900Z,17.92
2023-05-14T12:31:49.034Z,18.68
2023-05-14T12:34:16.519Z,17.58
2023-05-14T12:36:43.818Z,18.72
2023-05-14T12:39:11.062Z,19.13
2023-05-14T12:41:38.044Z,19.57
2023-05-14T12:44:05.459Z,19.29
2023-05-14T12:46:33.091Z,18.27
2023-05-14T12:49:00.219Z,17.68
2023-05-14T12:51:27.319Z,18.69
2023-05-14T12:53:54.463Z,19.45
2023-05-14T12:56:22.112Z,18.69
2023-05-14T12:58:49.162Z,19.14
2023-05-14T13:01:16.256Z,18.70
2023-05-14T13:03:43.302Z,17.91
2023-05-14T13:06:10.342Z,18.21
2023-05-14T13:08:37.363Z,19.12
2023-05-14T13:11:04.313Z,19.65
2023-05-14T13:13:31.324Z,20.33
2023-05-14T13:15:58.359Z,20.80
2023-05-14T13:18:26.698Z,20.10
2023-05-14T13:20:54.020Z,20.36
2023-05-14T13:23:21.068Z,20.75
2023-05-14T13:25:49.942Z,21.17
2023-05-14T13:28:17.186Z,21.55
2023-05-14T13:31:03.132Z,21.77
2023-05-14T13:33:30.822Z,21.79
2023-05-14T13:35:57.768Z,21.09
2023-05-14T13:38:24.768Z,20.56
2023-05-14T13:40:51.708Z,20.53
2023-05-14T13:43:20.029Z,20.93
2023-05-14T13:45:47.133Z,20.46
2023-05-14T13:48:14.193Z,20.48
2023-05-14T13:50:41.382Z,19.75
2023-05-14T13:53:08.441Z,19.46
2023-05-14T13:55:35.505Z,19.38
2023-05-14T13:58:02.615Z,19.06
2023-05-14T14:00:29.665Z,18.52
2023-05-14T14:02:56.714Z,18.06
2023-05-14T14:05:25.866Z,18.03
2023-05-14T14:08:00.637Z,18.52
2023-05-14T14:10:35.613Z,18.41
2023-05-14T14:13:02.593Z,18.14
2023-05-14T14:15:29.570Z,17.83
2023-05-14T14:17:56.634Z,18.05
2023-05-14T14:20:23.686Z,18.43
2023-05-14T14:22:50.806Z,18.17
2023-05-14T14:25:17.909Z,17.55
2023-05-14T14:27:47.400Z,17.22
2023-05-14T14:30:17.561Z,17.12
2023-05-14T14:32:48.277Z,16.77
2023-05-14T14:35:15.546Z,16.72
2023-05-14T14:37:43.552Z,16.99
2023-05-14T14:40:11.018Z,17.46
2023-05-14T14:42:38.454Z,17.40
2023-05-14T14:45:06.090Z,16.37
2023-05-14T14:47:33.244Z,16.17
2023-05-14T14:50:00.246Z,16.23
2023-05-14T14:52:27.445Z,16.22
2023-05-14T14:54:55.574Z,16.32
2023-05-14T14:57:22.618Z,16.78
2023-05-14T14:59:49.754Z,16.63
2023-05-14T15:02:16.761Z,16.33
2023-05-14T15:04:43.827Z,16.27
2023-05-14T15:07:11.257Z,16.09
2023-05-14T15:09:38.666Z,15.23
2023-05-14T15:12:06.286Z,15.10
2023-05-14T15:14:33.284Z,14.86
2023-05-14T15:17:00.427Z,14.98
2023-05-14T15:19:29.117Z,14.42
2023-05-14T15:21:56.168Z,14.20
2023-05-14T15:24:25.105Z,14.16
2023-05-14T15:26:53.540Z,14.28
2023-05-14T15:29:20.914Z,14.35
2023-05-14T15:31:48.128Z,14.92
2023-05-14T15:34:15.180Z,13.86
2023-05-14T15:36:42.145Z,14.14
2023-05-14T15:39:10.528Z,13.62
2023-05-14T15:41:38.060Z,14.17
2023-05-14T15:44:05.704Z,14.32
2023-05-14T15:46:32.854Z,13.97
2023-05-14T15:48:59.863Z,13.93
2023-05-14T15:51:26.880Z,13.86
2023-05-14T15:53:54.645Z,14.15
2023-05-14T15:56:22.630Z,15.22
2023-05-14T15:58:49.980Z,14.75
2023-05-14T16:01:17.671Z,15.51
2023-05-14T16:03:44.889Z,16.05
2023-05-14T16:06:11.960Z,16.28
2023-05-14T16:08:38.956Z,16.25
2023-05-14T16:11:06.504Z,16.57
2023-05-14T16:13:34.000Z,16.41
2023-05-14T16:16:01.486Z,15.65
2023-05-14T16:18:28.619Z,14.67
2023-05-14T16:20:56.321Z,14.50
2023-05-14T16:23:23.370Z,14.42
2023-05-14T16:25:51.467Z,14.34
2023-05-14T16:28:18.449Z,15.14
2023-05-14T16:30:45.509Z,15.68
2023-05-14T16:33:12.581Z,16.41
2023-05-14T16:35:39.576Z,16.57
2023-05-14T16:38:06.660Z,15.93
2023-05-14T16:40:33.732Z,15.01
2023-05-14T16:43:00.923Z,14.92
2023-05-14T16:45:28.110Z,14.72
2023-05-14T16:47:55.479Z,14.75
2023-05-14T16:50:23.938Z,13.95
2023-05-14T16:52:51.794Z,14.47
2023-05-14T16:55:19.992Z,14.53
2023-05-14T16:57:47.338Z,13.99
2023-05-14T17:00:15.518Z,14.84
2023-05-14T17:02:43.432Z,15.74
2023-05-14T17:05:10.870Z,14.59
2023-05-14T17:07:39.527Z,14.43
2023-05-14T17:10:07.534Z,14.11
2023-05-14T17:12:34.896Z,14.16
2023-05-14T17:15:03.766Z,14.00
2023-05-14T17:17:33.819Z,13.74
2023-05-14T17:20:01.095Z,13.06
2023-05-14T17:22:28.217Z,13.91
2023-05-14T17:24:56.324Z,13.73
2023-05-14T17:27:23.414Z,13.39
2023-05-14T17:29:54.369Z,13.84
2023-05-14T17:32:21.784Z,13.70
2023-05-14T17:34:48.855Z,14.43
2023-05-14T17:37:16.228Z,15.03
2023-05-14T17:39:43.328Z,16.10
2023-05-14T17:42:10.435Z,16.86
2023-05-14T17:44:37.486Z,16.74
2023-05-14T17:47:04.965Z,16.40
2023-05-14T17:49:32.024Z,15.97
2023-05-14T17:51:59.059Z,16.17
2023-05-14T17:54:26.078Z,16.63
2023-05-14T17:56:53.530Z,16.93
2023-05-14T17:59:21.952Z,17.09
2023-05-14T18:01:50.768Z,17.28
2023-05-14T18:04:17.798Z,17.40
2023-05-14T18:06:45.981Z,17.22
2023-05-14T18:09:13.252Z,17.41
2023-05-14T18:11:40.298Z,16.49
2023-05-14T18:14:07.336Z,17.00
2023-05-14T18:16:34.413Z,16.20
2023-05-14T18:19:01.516Z,15.91
2023-05-14T18:21:28.669Z,15.82
2023-05-14T18:23:56.112Z,15.99
2023-05-14T18:26:23.250Z,16.08
2023-05-14T18:28:50.346Z,15.98
2023-05-14T18:31:17.563Z,16.68
2023-05-14T18:33:44.733Z,16.30
2023-05-14T18:36:11.821Z,16.21
2023-05-14T18:38:38.970Z,15.09
2023-05-14T18:41:06.115Z,15.25
2023-05-14T18:43:33.205Z,15.59
2023-05-14T18:46:00.697Z,15.90
2023-05-14T18:48:27.909Z,15.94
2023-05-14T18:50:55.033Z,15.58
2023-05-14T18:53:22.271Z,14.95
2023-05-14T18:55:49.450Z,15.85
2023-05-14T18:58:17.777Z,16.22
2023-05-14T19:00:44.929Z,16.81
2023-05-14T19:03:12.214Z,16.75
2023-05-14T19:05:39.576Z,17.09
2023-05-14T19:08:06.740Z,17.34
2023-05-14T19:10:34.797Z,17.54
2023-05-14T19:13:02.207Z,17.57
2023-05-14T19:15:29.373Z,17.46
2023-05-14T19:17:57.036Z,17.29
2023-05-14T19:20:24.285Z,17.00
2023-05-14T19:22:51.404Z,16.95
2023-05-14T19:25:18.607Z,17.11
2023-05-14T19:27:47.699Z,17.24
2023-05-14T19:30:15.005Z,17.33
2023-05-14T19:32:42.147Z,17.45
2023-05-14T19:35:09.536Z,17.36
2023-05-14T19:37:36.601Z,17.51
2023-05-14T19:40:04.017Z,17.72
2023-05-14T19:42:31.926Z,17.52
2023-05-14T19:44:59.087Z,17.44
2023-05-14T19:47:26.243Z,17.33
2023-05-14T19:49:53.351Z,17.32
2023-05-14T19:52:20.553Z,17.19
2023-05-14T19:54:47.653Z,17.11
2023-05-14T19:57:14.721Z,17.02
2023-05-14T19:59:41.918Z,16.92
2023-05-14T20:02:09.244Z,16.70
2023-05-14T20:04:40.061Z,16.32
2023-05-14T20:07:07.343Z,16.23
2023-05-14T20:09:34.439Z,16.45
2023-05-14T20:12:01.544Z,16.67
2023-05-14T20:14:28.693Z,16.85
2023-05-14T20:16:58.050Z,16.93
2023-05-14T20:19:26.692Z,16.81
2023-05-14T20:21:53.924Z,16.54
2023-05-14T20:24:21.076Z,16.80
2023-05-14T20:26:48.215Z,17.06
2023-05-14T20:29:15.264Z,17.02
2023-05-14T20:31:42.431Z,17.07
2023-05-14T20:34:09.616Z,16.72
2023-05-14T20:36:37.529Z,16.53
2023-05-14T20:39:06.280Z,16.66
2023-05-14T20:41:33.456Z,16.65
2023-05-14T20:44:00.633Z,16.52
2023-05-14T20:46:27.803Z,16.27
2023-05-14T20:48:55.960Z,16.11
2023-05-14T20:51:23.065Z,16.13
2023-05-14T20:53:50.110Z,15.97
2023-05-14T20:56:17.157Z,16.06
2023-05-14T20:58:44.133Z,16.21
2023-05-14T21:01:11.111Z,16.36
2023-05-14T21:03:38.217Z,16.25
2023-05-14T21:06:05.423Z,16.27
2023-05-14T21:08:33.070Z,16.73
2023-05-14T21:11:00.088Z,16.60
2023-05-14T21:13:27.068Z,16.26
2023-05-14T21:15:54.063Z,15.79
2023-05-14T21:18:21.194Z,16.12
2023-05-14T21:20:48.227Z,16.21
2023-05-14T21:23:15.778Z,16.36
2023-05-14T21:25:42.811Z,16.67
2023-05-14T21:28:09.754Z,16.73
2023-05-14T21:30:36.757Z,16.70
2023-05-14T21:33:03.859Z,16.70
2023-05-14T21:35:30.991Z,16.81
2023-05-14T21:37:58.070Z,16.99
2023-05-14T21:40:25.052Z,16.93
2023-05-14T21:42:52.076Z,16.94
2023-05-14T21:45:19.851Z,16.91
2023-05-14T21:47:47.780Z,17.02
2023-05-14T21:50:14.875Z,17.21
2023-05-14T21:52:42.152Z,17.01
2023-05-14T21:55:09.599Z,16.81
2023-05-14T21:57:36.545Z,16.72
2023-05-14T22:00:06.529Z,16.58
2023-05-14T22:02:34.294Z,16.45
2023-05-14T22:05:02.335Z,16.62
2023-05-14T22:07:30.036Z,16.78
2023-05-14T22:09:57.018Z,16.55
2023-05-14T22:12:24.133Z,16.50
2023-05-14T22:14:51.162Z,16.41
2023-05-14T22:17:18.131Z,16.68
2023-05-14T22:19:45.373Z,16.88
2023-05-14T22:22:12.346Z,16.55
2023-05-14T22:24:39.326Z,16.40
2023-05-14T22:27:06.719Z,16.42
2023-05-14T22:29:33.719Z,16.46
2023-05-14T22:32:01.114Z,16.75
2023-05-14T22:34:28.221Z,16.62
2023-05-14T22:36:55.243Z,16.46
2023-05-14T22:39:22.286Z,16.47
2023-05-14T22:41:55.050Z,16.53
2023-05-14T22:44:22.728Z,16.48
2023-05-14T22:46:49.805Z,16.52
2023-05-14T22:49:16.917Z,16.64
2023-05-14T22:51:43.854Z,16.69
2023-05-14T22:54:11.065Z,16.64
2023-05-14T22:56:38.253Z,16.71
2023-05-14T22:59:05.226Z,16.87
2023-05-14T23:01:32.295Z,16.79
2023-05-14T23:03:59.315Z,16.73
2023-05-14T23:06:26.424Z,16.10
2023-05-14T23:08:53.470Z,16.27
2023-05-14T23:11:21.499Z,16.35
2023-05-14T23:13:48.606Z,16.40
2023-05-14T23:16:15.589Z,15.43
2023-05-14T23:18:43.118Z,15.75
2023-05-14T23:21:10.240Z,16.13
2023-05-14T23:23:37.323Z,16.39
2023-05-14T23:26:04.524Z,16.34
2023-05-14T23:28:31.657Z,16.41
2023-05-14T23:30:58.707Z,16.41
2023-05-14T23:33:25.859Z,16.47
2023-05-14T23:35:53.040Z,16.49
2023-05-14T23:38:20.115Z,16.46
2023-05-14T23:40:47.121Z,16.57
2023-05-14T23:43:14.980Z,16.65
2023-05-14T23:45:41.960Z,16.33
2023-05-14T23:48:09.025Z,16.12
2023-05-14T23:50:35.997Z,15.86
2023-05-14T23:53:03.004Z,15.80
2023-05-14T23:55:29.985Z,16.08
2023-05-14T23:57:56.952Z,16.12
